Danville, Washington
Current Conditions -  °F | °C
As of 5:00 PM on Tuesday 27 Jan 2015 (Local Time) from CYCG Reporting Station
Haze Haze  
Wind Chill: 36°   Ceiling: 600
Heat Index: 36°   Visibility: 5mi
Dew Point: 34°   Wind: 2mph
Humidity: 93%   Direction: NA
Pressure: 30.05"   Gusts: NA
Location:  48.99°N, 118.51°W
Report Text: CYCG 280100Z VRB02KT 5SM BR BKN006 OVC045 02/01 A3005 RMK ST7SC1 LAST OBS/NEXT 281400UTC SLP194
Loading
Personal Weather Stations






























Interactive Weather Map New forecast layout! Learn more

10-Day Weather Forecast

Advertisements
Track Severe Weather on mobile